sensor_id;sensor_type;location;lat;lon;timestamp;noise_LAeq;noise_LA_min;noise_LA_max;noise_LA01;noise_LA95
77134;Laerm;25175;50.140;18.990;2023-08-06T00:00:51;34.16;32.38;40.10;;
77134;Laerm;25175;50.140;18.990;2023-08-06T00:03:55;34.24;32.36;45.29;;
77134;Laerm;25175;50.140;18.990;2023-08-06T00:07:03;34.20;32.06;38.78;;
77134;Laerm;25175;50.140;18.990;2023-08-06T00:10:08;34.30;32.41;41.72;;
77134;Laerm;25175;50.140;18.990;2023-08-06T00:13:13;35.15;32.51;43.40;;
77134;Laerm;25175;50.140;18.990;2023-08-06T00:16:20;37.85;32.94;50.68;;
77134;Laerm;25175;50.140;18.990;2023-08-06T00:19:26;36.10;32.51;49.19;;
77134;Laerm;25175;50.140;18.990;2023-08-06T00:22:31;36.71;32.26;47.61;;
77134;Laerm;25175;50.140;18.990;2023-08-06T00:25:39;37.13;32.15;52.96;;
77134;Laerm;25175;50.140;18.990;2023-08-06T00:28:44;34.09;32.37;40.56;;
77134;Laerm;25175;50.140;18.990;2023-08-06T00:31:52;33.79;32.13;36.43;;
77134;Laerm;25175;50.140;18.990;2023-08-06T00:34:56;33.78;32.14;39.37;;
77134;Laerm;25175;50.140;18.990;2023-08-06T00:38:01;33.62;32.01;51.59;;
77134;Laerm;25175;50.140;18.990;2023-08-06T00:41:06;33.59;32.14;36.06;;
77134;Laerm;25175;50.140;18.990;2023-08-06T00:44:12;38.13;31.99;48.28;;
77134;Laerm;25175;50.140;18.990;2023-08-06T00:47:20;33.61;32.02;36.95;;
77134;Laerm;25175;50.140;18.990;2023-08-06T00:50:25;36.79;31.88;51.40;;
77134;Laerm;25175;50.140;18.990;2023-08-06T00:53:30;34.69;31.98;43.89;;
77134;Laerm;25175;50.140;18.990;2023-08-06T00:56:37;33.42;31.62;37.14;;
77134;Laerm;25175;50.140;18.990;2023-08-06T00:59:42;33.51;32.16;37.84;;
77134;Laerm;25175;50.140;18.990;2023-08-06T01:02:51;36.96;32.00;51.19;;
77134;Laerm;25175;50.140;18.990;2023-08-06T01:05:56;35.84;31.79;49.33;;
77134;Laerm;25175;50.140;18.990;2023-08-06T01:09:15;34.71;32.00;42.75;;
77134;Laerm;25175;50.140;18.990;2023-08-06T01:12:37;33.30;31.72;36.09;;
77134;Laerm;25175;50.140;18.990;2023-08-06T01:15:52;33.28;31.77;36.34;;
77134;Laerm;25175;50.140;18.990;2023-08-06T01:19:01;36.32;31.65;51.89;;
77134;Laerm;25175;50.140;18.990;2023-08-06T01:22:09;33.23;31.79;36.00;;
77134;Laerm;25175;50.140;18.990;2023-08-06T01:25:16;33.33;31.60;36.20;;
77134;Laerm;25175;50.140;18.990;2023-08-06T01:28:36;36.53;31.74;54.11;;
77134;Laerm;25175;50.140;18.990;2023-08-06T01:31:48;33.19;31.85;36.00;;
77134;Laerm;25175;50.140;18.990;2023-08-06T01:34:55;33.11;31.70;35.61;;
77134;Laerm;25175;50.140;18.990;2023-08-06T01:38:03;33.04;31.60;36.26;;
77134;Laerm;25175;50.140;18.990;2023-08-06T01:41:09;33.11;31.76;38.58;;
77134;Laerm;25175;50.140;18.990;2023-08-06T01:44:14;33.25;31.62;39.20;;
77134;Laerm;25175;50.140;18.990;2023-08-06T01:47:20;33.15;31.70;36.36;;
77134;Laerm;25175;50.140;18.990;2023-08-06T01:50:24;34.33;31.85;48.99;;
77134;Laerm;25175;50.140;18.990;2023-08-06T01:53:32;33.15;31.84;36.88;;
77134;Laerm;25175;50.140;18.990;2023-08-06T01:56:37;33.21;31.81;37.52;;
77134;Laerm;25175;50.140;18.990;2023-08-06T01:59:42;36.59;31.79;52.27;;
77134;Laerm;25175;50.140;18.990;2023-08-06T02:02:47;33.66;32.05;36.83;;
77134;Laerm;25175;50.140;18.990;2023-08-06T02:05:52;35.32;32.03;49.05;;
77134;Laerm;25175;50.140;18.990;2023-08-06T02:08:59;35.84;31.70;49.81;;
77134;Laerm;25175;50.140;18.990;2023-08-06T02:12:06;33.32;31.90;36.18;;
77134;Laerm;25175;50.140;18.990;2023-08-06T02:15:11;33.77;31.69;40.68;;
77134;Laerm;25175;50.140;18.990;2023-08-06T02:18:16;36.72;31.74;49.72;;
77134;Laerm;25175;50.140;18.990;2023-08-06T02:21:21;33.54;32.11;36.14;;
77134;Laerm;25175;50.140;18.990;2023-08-06T02:24:29;35.53;32.18;50.36;;
77134;Laerm;25175;50.140;18.990;2023-08-06T02:27:34;33.82;32.06;36.48;;
77134;Laerm;25175;50.140;18.990;2023-08-06T02:30:49;33.79;32.10;35.84;;
77134;Laerm;25175;50.140;18.990;2023-08-06T02:33:54;33.81;32.19;40.40;;
77134;Laerm;25175;50.140;18.990;2023-08-06T02:37:00;33.77;32.03;36.27;;
77134;Laerm;25175;50.140;18.990;2023-08-06T02:40:09;37.11;32.16;52.55;;
77134;Laerm;25175;50.140;18.990;2023-08-06T02:43:14;33.68;31.94;37.62;;
77134;Laerm;25175;50.140;18.990;2023-08-06T02:46:19;36.60;32.21;51.50;;
77134;Laerm;25175;50.140;18.990;2023-08-06T02:49:25;33.88;32.12;36.52;;
77134;Laerm;25175;50.140;18.990;2023-08-06T02:52:31;33.83;31.98;36.63;;
77134;Laerm;25175;50.140;18.990;2023-08-06T02:55:47;34.00;32.12;36.38;;
77134;Laerm;25175;50.140;18.990;2023-08-06T02:58:55;33.95;32.14;36.92;;
77134;Laerm;25175;50.140;18.990;2023-08-06T03:02:17;39.21;32.03;59.35;;
77134;Laerm;25175;50.140;18.990;2023-08-06T03:05:31;33.93;32.17;37.45;;
77134;Laerm;25175;50.140;18.990;2023-08-06T03:08:36;34.70;32.48;43.86;;
77134;Laerm;25175;50.140;18.990;2023-08-06T03:11:44;34.08;32.39;37.25;;
77134;Laerm;25175;50.140;18.990;2023-08-06T03:14:51;34.19;32.12;43.30;;
77134;Laerm;25175;50.140;18.990;2023-08-06T03:17:56;34.69;32.81;37.52;;
77134;Laerm;25175;50.140;18.990;2023-08-06T03:21:02;34.44;32.84;36.69;;
77134;Laerm;25175;50.140;18.990;2023-08-06T03:24:07;36.40;32.29;49.93;;
77134;Laerm;25175;50.140;18.990;2023-08-06T03:27:17;37.69;32.61;52.63;;
77134;Laerm;25175;50.140;18.990;2023-08-06T03:30:24;37.76;32.94;54.62;;
77134;Laerm;25175;50.140;18.990;2023-08-06T03:33:31;35.69;32.48;47.68;;
77134;Laerm;25175;50.140;18.990;2023-08-06T03:36:38;34.93;32.38;42.40;;
77134;Laerm;25175;50.140;18.990;2023-08-06T03:39:43;41.03;32.94;59.36;;
77134;Laerm;25175;50.140;18.990;2023-08-06T03:42:50;36.64;33.20;50.65;;
77134;Laerm;25175;50.140;18.990;2023-08-06T03:45:56;35.39;33.12;42.12;;
77134;Laerm;25175;50.140;18.990;2023-08-06T03:49:01;35.99;33.41;50.57;;
77134;Laerm;25175;50.140;18.990;2023-08-06T03:52:07;35.91;33.28;50.70;;
77134;Laerm;25175;50.140;18.990;2023-08-06T03:55:11;35.76;33.26;43.02;;
77134;Laerm;25175;50.140;18.990;2023-08-06T03:58:20;35.29;32.92;39.02;;
77134;Laerm;25175;50.140;18.990;2023-08-06T04:01:24;36.82;33.32;49.30;;
77134;Laerm;25175;50.140;18.990;2023-08-06T04:04:30;49.35;33.36;67.27;;
77134;Laerm;25175;50.140;18.990;2023-08-06T04:07:35;36.25;32.68;47.68;;
77134;Laerm;25175;50.140;18.990;2023-08-06T04:10:40;35.37;33.27;43.38;;
77134;Laerm;25175;50.140;18.990;2023-08-06T04:13:47;35.80;32.70;42.48;;
77134;Laerm;25175;50.140;18.990;2023-08-06T04:16:53;39.07;33.06;57.21;;
77134;Laerm;25175;50.140;18.990;2023-08-06T04:19:57;36.91;33.15;49.48;;
77134;Laerm;25175;50.140;18.990;2023-08-06T04:23:07;42.51;34.75;62.88;;
77134;Laerm;25175;50.140;18.990;2023-08-06T04:26:12;37.35;33.59;49.23;;
77134;Laerm;25175;50.140;18.990;2023-08-06T04:29:20;37.09;33.65;48.74;;
77134;Laerm;25175;50.140;18.990;2023-08-06T04:32:25;37.17;34.85;47.96;;
77134;Laerm;25175;50.140;18.990;2023-08-06T04:35:31;38.05;33.84;52.02;;
77134;Laerm;25175;50.140;18.990;2023-08-06T04:38:36;37.38;33.33;51.28;;
77134;Laerm;25175;50.140;18.990;2023-08-06T04:41:43;35.19;32.97;49.10;;
77134;Laerm;25175;50.140;18.990;2023-08-06T04:44:51;35.40;32.97;49.63;;
77134;Laerm;25175;50.140;18.990;2023-08-06T04:47:56;40.43;33.05;59.71;;
77134;Laerm;25175;50.140;18.990;2023-08-06T04:51:01;39.43;33.23;56.04;;
77134;Laerm;25175;50.140;18.990;2023-08-06T04:54:07;38.08;32.79;54.04;;
77134;Laerm;25175;50.140;18.990;2023-08-06T04:57:11;34.51;32.77;42.29;;
77134;Laerm;25175;50.140;18.990;2023-08-06T05:00:19;36.04;33.47;39.47;;
77134;Laerm;25175;50.140;18.990;2023-08-06T05:03:24;40.21;35.80;56.08;;
77134;Laerm;25175;50.140;18.990;2023-08-06T05:06:29;41.60;36.62;52.52;;
77134;Laerm;25175;50.140;18.990;2023-08-06T05:09:34;46.11;42.78;52.70;;
77134;Laerm;25175;50.140;18.990;2023-08-06T05:12:39;45.53;40.89;55.16;;
77134;Laerm;25175;50.140;18.990;2023-08-06T05:15:47;44.44;40.32;51.81;;
77134;Laerm;25175;50.140;18.990;2023-08-06T05:18:52;46.37;41.83;55.01;;
77134;Laerm;25175;50.140;18.990;2023-08-06T05:21:56;41.82;38.35;53.57;;
77134;Laerm;25175;50.140;18.990;2023-08-06T05:25:04;42.58;38.90;47.48;;
77134;Laerm;25175;50.140;18.990;2023-08-06T05:28:09;42.54;37.84;53.95;;
77134;Laerm;25175;50.140;18.990;2023-08-06T05:31:17;43.27;39.47;56.19;;
77134;Laerm;25175;50.140;18.990;2023-08-06T05:34:21;46.81;38.31;62.01;;
77134;Laerm;25175;50.140;18.990;2023-08-06T05:37:27;39.72;35.46;57.52;;
77134;Laerm;25175;50.140;18.990;2023-08-06T05:40:33;40.73;35.86;54.13;;
77134;Laerm;25175;50.140;18.990;2023-08-06T05:43:39;44.86;41.40;57.30;;
77134;Laerm;25175;50.140;18.990;2023-08-06T05:46:46;43.57;40.88;55.95;;
77134;Laerm;25175;50.140;18.990;2023-08-06T05:49:51;48.48;41.83;57.96;;
77134;Laerm;25175;50.140;18.990;2023-08-06T05:52:56;46.74;42.60;59.85;;
77134;Laerm;25175;50.140;18.990;2023-08-06T05:56:01;45.39;40.69;57.43;;
77134;Laerm;25175;50.140;18.990;2023-08-06T05:59:05;43.96;39.45;57.60;;
77134;Laerm;25175;50.140;18.990;2023-08-06T06:02:13;44.22;39.68;52.78;;
77134;Laerm;25175;50.140;18.990;2023-08-06T06:05:20;45.09;41.67;56.19;;
77134;Laerm;25175;50.140;18.990;2023-08-06T06:08:25;50.45;45.24;59.50;;
77134;Laerm;25175;50.140;18.990;2023-08-06T06:11:29;47.11;42.05;59.03;;
77134;Laerm;25175;50.140;18.990;2023-08-06T06:14:35;48.12;41.66;58.08;;
77134;Laerm;25175;50.140;18.990;2023-08-06T06:17:42;50.90;47.76;58.61;;
77134;Laerm;25175;50.140;18.990;2023-08-06T06:20:47;48.74;42.45;57.11;;
77134;Laerm;25175;50.140;18.990;2023-08-06T06:23:51;42.67;39.03;56.80;;
77134;Laerm;25175;50.140;18.990;2023-08-06T06:26:57;43.70;39.94;58.74;;
77134;Laerm;25175;50.140;18.990;2023-08-06T06:30:01;44.21;41.75;55.39;;
77134;Laerm;25175;50.140;18.990;2023-08-06T06:33:10;49.48;43.10;55.21;;
77134;Laerm;25175;50.140;18.990;2023-08-06T06:36:14;45.79;40.55;56.47;;
77134;Laerm;25175;50.140;18.990;2023-08-06T06:39:21;43.25;40.53;55.78;;
77134;Laerm;25175;50.140;18.990;2023-08-06T06:42:26;44.34;40.49;56.70;;
77134;Laerm;25175;50.140;18.990;2023-08-06T06:45:36;43.47;39.38;55.84;;
77134;Laerm;25175;50.140;18.990;2023-08-06T06:48:43;42.98;40.17;55.85;;
77134;Laerm;25175;50.140;18.990;2023-08-06T06:51:48;44.87;40.14;55.67;;
77134;Laerm;25175;50.140;18.990;2023-08-06T06:54:52;46.70;36.58;58.90;;
77134;Laerm;25175;50.140;18.990;2023-08-06T06:57:58;42.92;36.13;58.14;;
77134;Laerm;25175;50.140;18.990;2023-08-06T07:01:02;42.23;35.98;56.67;;
77134;Laerm;25175;50.140;18.990;2023-08-06T07:04:10;43.23;36.58;59.89;;
77134;Laerm;25175;50.140;18.990;2023-08-06T07:07:15;43.15;37.37;58.61;;
77134;Laerm;25175;50.140;18.990;2023-08-06T07:10:20;41.30;38.57;55.92;;
77134;Laerm;25175;50.140;18.990;2023-08-06T07:13:24;42.29;37.98;57.88;;
77134;Laerm;25175;50.140;18.990;2023-08-06T07:16:30;44.78;39.10;57.00;;
77134;Laerm;25175;50.140;18.990;2023-08-06T07:19:37;48.22;44.80;55.91;;
77134;Laerm;25175;50.140;18.990;2023-08-06T07:22:43;48.32;46.02;63.60;;
77134;Laerm;25175;50.140;18.990;2023-08-06T07:25:48;49.61;46.06;60.34;;
77134;Laerm;25175;50.140;18.990;2023-08-06T07:28:54;53.28;46.60;65.15;;
77134;Laerm;25175;50.140;18.990;2023-08-06T07:31:58;52.83;49.15;60.27;;
77134;Laerm;25175;50.140;18.990;2023-08-06T07:35:07;53.23;47.60;60.10;;
77134;Laerm;25175;50.140;18.990;2023-08-06T07:38:14;48.11;43.18;61.30;;
77134;Laerm;25175;50.140;18.990;2023-08-06T07:41:19;50.32;42.81;71.66;;
77134;Laerm;25175;50.140;18.990;2023-08-06T07:44:23;47.07;42.91;59.46;;
77134;Laerm;25175;50.140;18.990;2023-08-06T07:47:29;54.73;43.38;75.79;;
77134;Laerm;25175;50.140;18.990;2023-08-06T07:50:36;49.55;43.23;66.11;;
77134;Laerm;25175;50.140;18.990;2023-08-06T07:53:41;47.90;42.53;57.15;;
77134;Laerm;25175;50.140;18.990;2023-08-06T07:56:46;49.71;44.72;61.39;;
77134;Laerm;25175;50.140;18.990;2023-08-06T07:59:51;51.61;45.07;68.02;;
77134;Laerm;25175;50.140;18.990;2023-08-06T08:02:57;47.40;41.28;59.47;;
77134;Laerm;25175;50.140;18.990;2023-08-06T08:06:06;47.50;41.95;58.86;;
77134;Laerm;25175;50.140;18.990;2023-08-06T08:09:10;48.00;43.91;58.11;;
77134;Laerm;25175;50.140;18.990;2023-08-06T08:12:15;47.08;43.95;55.33;;
77134;Laerm;25175;50.140;18.990;2023-08-06T08:15:20;46.41;41.12;59.25;;
77134;Laerm;25175;50.140;18.990;2023-08-06T08:18:26;41.57;37.81;57.65;;
77134;Laerm;25175;50.140;18.990;2023-08-06T08:21:35;39.65;35.60;54.65;;
77134;Laerm;25175;50.140;18.990;2023-08-06T08:24:41;45.09;36.79;59.81;;
77134;Laerm;25175;50.140;18.990;2023-08-06T08:27:45;44.10;38.29;58.12;;
77134;Laerm;25175;50.140;18.990;2023-08-06T08:30:50;45.86;37.42;65.31;;
77134;Laerm;25175;50.140;18.990;2023-08-06T08:33:55;44.02;39.93;55.07;;
77134;Laerm;25175;50.140;18.990;2023-08-06T08:37:04;42.73;37.49;60.45;;
77134;Laerm;25175;50.140;18.990;2023-08-06T08:40:09;46.36;37.63;66.47;;
77134;Laerm;25175;50.140;18.990;2023-08-06T08:43:15;43.02;39.35;52.91;;
77134;Laerm;25175;50.140;18.990;2023-08-06T08:46:20;45.76;40.58;57.25;;
77134;Laerm;25175;50.140;18.990;2023-08-06T08:49:28;47.76;37.97;65.11;;
77134;Laerm;25175;50.140;18.990;2023-08-06T08:52:39;41.04;37.64;54.79;;
77134;Laerm;25175;50.140;18.990;2023-08-06T08:55:49;46.47;36.87;62.19;;
77134;Laerm;25175;50.140;18.990;2023-08-06T08:58:53;44.04;36.32;58.84;;
77134;Laerm;25175;50.140;18.990;2023-08-06T09:02:01;43.15;36.44;59.61;;
77134;Laerm;25175;50.140;18.990;2023-08-06T09:05:09;43.94;37.52;58.31;;
77134;Laerm;25175;50.140;18.990;2023-08-06T09:08:22;43.53;39.08;55.34;;
77134;Laerm;25175;50.140;18.990;2023-08-06T09:11:31;45.25;40.66;61.72;;
77134;Laerm;25175;50.140;18.990;2023-08-06T09:14:42;44.81;40.34;55.91;;
77134;Laerm;25175;50.140;18.990;2023-08-06T09:17:47;46.94;42.71;59.64;;
77134;Laerm;25175;50.140;18.990;2023-08-06T09:20:52;45.45;39.49;57.55;;
77134;Laerm;25175;50.140;18.990;2023-08-06T09:24:00;40.61;37.21;53.17;;
77134;Laerm;25175;50.140;18.990;2023-08-06T09:27:08;44.43;37.39;55.88;;
77134;Laerm;25175;50.140;18.990;2023-08-06T09:30:30;47.42;43.13;61.28;;
77134;Laerm;25175;50.140;18.990;2023-08-06T09:33:37;48.40;41.71;58.91;;
77134;Laerm;25175;50.140;18.990;2023-08-06T09:36:43;45.11;40.98;58.11;;
77134;Laerm;25175;50.140;18.990;2023-08-06T09:39:51;45.06;40.86;60.54;;
77134;Laerm;25175;50.140;18.990;2023-08-06T09:42:57;44.82;38.71;56.10;;
77134;Laerm;25175;50.140;18.990;2023-08-06T09:46:11;40.17;36.75;55.15;;
77134;Laerm;25175;50.140;18.990;2023-08-06T09:49:19;47.20;36.81;60.45;;
77134;Laerm;25175;50.140;18.990;2023-08-06T09:52:25;43.23;36.76;58.47;;
77134;Laerm;25175;50.140;18.990;2023-08-06T09:55:33;46.02;37.52;58.93;;
77134;Laerm;25175;50.140;18.990;2023-08-06T09:58:40;45.31;36.78;63.00;;
77134;Laerm;25175;50.140;18.990;2023-08-06T10:01:46;46.48;36.14;61.57;;
77134;Laerm;25175;50.140;18.990;2023-08-06T10:04:55;39.80;35.92;54.32;;
77134;Laerm;25175;50.140;18.990;2023-08-06T10:08:03;46.37;36.79;60.12;;
77134;Laerm;25175;50.140;18.990;2023-08-06T10:11:17;45.13;39.78;56.04;;
77134;Laerm;25175;50.140;18.990;2023-08-06T10:14:27;46.30;40.49;61.00;;
77134;Laerm;25175;50.140;18.990;2023-08-06T10:17:37;44.99;39.49;62.75;;
77134;Laerm;25175;50.140;18.990;2023-08-06T10:20:42;43.14;38.10;54.89;;
77134;Laerm;25175;50.140;18.990;2023-08-06T10:23:54;43.48;37.61;58.92;;
77134;Laerm;25175;50.140;18.990;2023-08-06T10:27:02;42.75;37.36;56.08;;
77134;Laerm;25175;50.140;18.990;2023-08-06T10:30:24;46.90;40.80;62.18;;
77134;Laerm;25175;50.140;18.990;2023-08-06T10:33:42;43.91;40.93;54.84;;
77134;Laerm;25175;50.140;18.990;2023-08-06T10:36:48;47.08;41.76;60.24;;
77134;Laerm;25175;50.140;18.990;2023-08-06T10:39:53;46.51;42.45;58.56;;
77134;Laerm;25175;50.140;18.990;2023-08-06T10:43:03;45.51;41.51;60.71;;
77134;Laerm;25175;50.140;18.990;2023-08-06T10:46:11;43.44;38.47;56.46;;
77134;Laerm;25175;50.140;18.990;2023-08-06T10:49:18;41.69;37.72;57.48;;
77134;Laerm;25175;50.140;18.990;2023-08-06T10:52:23;43.61;38.19;61.35;;
77134;Laerm;25175;50.140;18.990;2023-08-06T10:55:29;44.81;39.08;60.75;;
77134;Laerm;25175;50.140;18.990;2023-08-06T10:58:37;44.80;38.79;57.87;;
77134;Laerm;25175;50.140;18.990;2023-08-06T11:01:42;46.87;38.02;63.33;;
77134;Laerm;25175;50.140;18.990;2023-08-06T11:04:48;45.84;36.99;57.56;;
77134;Laerm;25175;50.140;18.990;2023-08-06T11:07:53;51.88;36.78;83.48;;
77134;Laerm;25175;50.140;18.990;2023-08-06T11:11:08;46.93;36.20;73.85;;
77134;Laerm;25175;50.140;18.990;2023-08-06T11:14:18;39.36;36.03;59.58;;
77134;Laerm;25175;50.140;18.990;2023-08-06T11:17:23;42.32;36.32;58.43;;
77134;Laerm;25175;50.140;18.990;2023-08-06T11:20:28;45.49;36.93;69.26;;
77134;Laerm;25175;50.140;18.990;2023-08-06T11:23:35;46.90;39.02;68.75;;
77134;Laerm;25175;50.140;18.990;2023-08-06T11:26:40;44.91;38.81;58.69;;
77134;Laerm;25175;50.140;18.990;2023-08-06T11:29:49;44.09;38.63;58.18;;
77134;Laerm;25175;50.140;18.990;2023-08-06T11:32:54;44.60;39.15;60.03;;
77134;Laerm;25175;50.140;18.990;2023-08-06T11:36:01;43.16;39.23;56.66;;
77134;Laerm;25175;50.140;18.990;2023-08-06T11:39:06;46.56;39.98;60.50;;
77134;Laerm;25175;50.140;18.990;2023-08-06T11:42:13;44.83;36.84;57.08;;
77134;Laerm;25175;50.140;18.990;2023-08-06T11:45:25;45.37;36.29;62.09;;
77134;Laerm;25175;50.140;18.990;2023-08-06T11:48:29;41.32;36.08;55.05;;
77134;Laerm;25175;50.140;18.990;2023-08-06T11:51:34;46.74;36.21;66.01;;
77134;Laerm;25175;50.140;18.990;2023-08-06T11:54:39;45.86;35.92;63.53;;
77134;Laerm;25175;50.140;18.990;2023-08-06T11:57:45;43.38;35.89;58.00;;
77134;Laerm;25175;50.140;18.990;2023-08-06T12:00:53;44.35;35.74;59.78;;
77134;Laerm;25175;50.140;18.990;2023-08-06T12:04:00;40.08;35.45;54.11;;
77134;Laerm;25175;50.140;18.990;2023-08-06T12:07:05;43.10;35.86;57.94;;
77134;Laerm;25175;50.140;18.990;2023-08-06T12:10:12;40.33;36.01;54.02;;
77134;Laerm;25175;50.140;18.990;2023-08-06T12:13:17;41.78;35.91;61.13;;
77134;Laerm;25175;50.140;18.990;2023-08-06T12:16:25;43.62;36.13;55.03;;
77134;Laerm;25175;50.140;18.990;2023-08-06T12:19:29;45.25;38.19;60.78;;
77134;Laerm;25175;50.140;18.990;2023-08-06T12:22:36;44.79;41.29;53.34;;
77134;Laerm;25175;50.140;18.990;2023-08-06T12:25:41;45.13;39.79;57.87;;
77134;Laerm;25175;50.140;18.990;2023-08-06T12:28:47;46.77;39.75;62.98;;
77134;Laerm;25175;50.140;18.990;2023-08-06T12:31:54;46.72;36.40;60.41;;
77134;Laerm;25175;50.140;18.990;2023-08-06T12:34:59;45.02;36.01;69.77;;
77134;Laerm;25175;50.140;18.990;2023-08-06T12:38:04;42.79;37.01;56.41;;
77134;Laerm;25175;50.140;18.990;2023-08-06T12:41:10;45.70;39.53;58.00;;
77134;Laerm;25175;50.140;18.990;2023-08-06T12:44:14;46.20;40.70;58.84;;
77134;Laerm;25175;50.140;18.990;2023-08-06T12:47:22;45.85;39.59;60.18;;
77134;Laerm;25175;50.140;18.990;2023-08-06T12:50:27;46.31;39.25;66.10;;
77134;Laerm;25175;50.140;18.990;2023-08-06T12:53:32;46.35;39.26;57.10;;
77134;Laerm;25175;50.140;18.990;2023-08-06T12:56:37;42.65;37.94;52.94;;
77134;Laerm;25175;50.140;18.990;2023-08-06T12:59:42;44.26;37.01;61.18;;
77134;Laerm;25175;50.140;18.990;2023-08-06T13:02:49;44.15;37.70;60.52;;
77134;Laerm;25175;50.140;18.990;2023-08-06T13:05:55;44.41;35.71;60.03;;
77134;Laerm;25175;50.140;18.990;2023-08-06T13:08:59;43.24;36.28;57.91;;
77134;Laerm;25175;50.140;18.990;2023-08-06T13:12:06;46.14;36.49;64.19;;
77134;Laerm;25175;50.140;18.990;2023-08-06T13:15:10;43.66;35.95;59.93;;
77134;Laerm;25175;50.140;18.990;2023-08-06T13:18:19;42.11;34.69;60.90;;
77134;Laerm;25175;50.140;18.990;2023-08-06T13:21:24;45.28;34.94;59.90;;
77134;Laerm;25175;50.140;18.990;2023-08-06T13:24:29;43.43;35.47;58.22;;
77134;Laerm;25175;50.140;18.990;2023-08-06T13:27:34;41.80;35.51;56.08;;
77134;Laerm;25175;50.140;18.990;2023-08-06T13:30:40;42.95;35.34;56.33;;
77134;Laerm;25175;50.140;18.990;2023-08-06T13:33:48;42.49;35.92;57.21;;
77134;Laerm;25175;50.140;18.990;2023-08-06T13:36:54;40.68;35.39;55.09;;
77134;Laerm;25175;50.140;18.990;2023-08-06T13:39:59;41.60;34.70;58.42;;
77134;Laerm;25175;50.140;18.990;2023-08-06T13:43:06;42.51;35.21;58.52;;
77134;Laerm;25175;50.140;18.990;2023-08-06T13:46:11;41.26;34.43;55.76;;
77134;Laerm;25175;50.140;18.990;2023-08-06T13:49:21;40.71;35.06;56.95;;
77134;Laerm;25175;50.140;18.990;2023-08-06T13:52:26;42.21;35.62;56.53;;
77134;Laerm;25175;50.140;18.990;2023-08-06T13:55:32;40.02;34.57;51.61;;
77134;Laerm;25175;50.140;18.990;2023-08-06T13:58:36;41.26;34.70;58.74;;
77134;Laerm;25175;50.140;18.990;2023-08-06T14:01:42;43.36;34.50;59.25;;
77134;Laerm;25175;50.140;18.990;2023-08-06T14:04:49;43.57;34.90;55.03;;
77134;Laerm;25175;50.140;18.990;2023-08-06T14:07:54;42.74;35.74;56.89;;
77134;Laerm;25175;50.140;18.990;2023-08-06T14:10:59;42.64;36.30;56.73;;
77134;Laerm;25175;50.140;18.990;2023-08-06T14:14:04;44.40;35.71;60.83;;
77134;Laerm;25175;50.140;18.990;2023-08-06T14:17:09;41.57;34.92;55.50;;
77134;Laerm;25175;50.140;18.990;2023-08-06T14:20:17;40.88;34.85;57.21;;
77134;Laerm;25175;50.140;18.990;2023-08-06T14:23:21;42.97;35.09;55.96;;
77134;Laerm;25175;50.140;18.990;2023-08-06T14:26:26;40.75;34.76;54.95;;
77134;Laerm;25175;50.140;18.990;2023-08-06T14:29:31;42.77;35.83;53.95;;
77134;Laerm;25175;50.140;18.990;2023-08-06T14:32:36;48.51;35.51;71.88;;
77134;Laerm;25175;50.140;18.990;2023-08-06T14:35:44;41.23;35.01;55.05;;
77134;Laerm;25175;50.140;18.990;2023-08-06T14:38:49;41.02;34.91;55.95;;
77134;Laerm;25175;50.140;18.990;2023-08-06T14:41:54;40.42;35.17;52.46;;
77134;Laerm;25175;50.140;18.990;2023-08-06T14:44:59;43.29;36.15;62.00;;
77134;Laerm;25175;50.140;18.990;2023-08-06T14:48:04;44.61;36.02;59.71;;
77134;Laerm;25175;50.140;18.990;2023-08-06T14:51:12;43.49;35.38;56.93;;
77134;Laerm;25175;50.140;18.990;2023-08-06T14:54:16;43.67;34.75;58.31;;
77134;Laerm;25175;50.140;18.990;2023-08-06T14:57:22;42.53;35.34;60.88;;
77134;Laerm;25175;50.140;18.990;2023-08-06T15:00:29;43.32;34.96;66.15;;
77134;Laerm;25175;50.140;18.990;2023-08-06T15:03:34;42.99;34.77;57.43;;
77134;Laerm;25175;50.140;18.990;2023-08-06T15:06:41;44.38;35.86;56.15;;
77134;Laerm;25175;50.140;18.990;2023-08-06T15:09:47;42.16;35.43;56.89;;
77134;Laerm;25175;50.140;18.990;2023-08-06T15:12:52;44.96;36.92;59.53;;
77134;Laerm;25175;50.140;18.990;2023-08-06T15:15:57;45.16;36.09;67.09;;
77134;Laerm;25175;50.140;18.990;2023-08-06T15:19:02;45.08;37.84;60.95;;
77134;Laerm;25175;50.140;18.990;2023-08-06T15:22:09;45.73;36.63;59.04;;
77134;Laerm;25175;50.140;18.990;2023-08-06T15:25:15;51.79;36.24;67.46;;
77134;Laerm;25175;50.140;18.990;2023-08-06T15:28:20;44.54;36.26;58.41;;
77134;Laerm;25175;50.140;18.990;2023-08-06T15:31:36;43.77;37.08;54.94;;
77134;Laerm;25175;50.140;18.990;2023-08-06T15:34:46;39.66;36.01;50.79;;
77134;Laerm;25175;50.140;18.990;2023-08-06T15:37:55;44.00;35.36;60.13;;
77134;Laerm;25175;50.140;18.990;2023-08-06T15:41:02;43.22;36.02;55.01;;
77134;Laerm;25175;50.140;18.990;2023-08-06T15:44:07;44.27;36.67;67.50;;
77134;Laerm;25175;50.140;18.990;2023-08-06T15:47:13;46.95;37.83;60.82;;
77134;Laerm;25175;50.140;18.990;2023-08-06T15:50:17;44.36;36.46;60.01;;
77134;Laerm;25175;50.140;18.990;2023-08-06T15:53:26;44.96;35.57;59.61;;
77134;Laerm;25175;50.140;18.990;2023-08-06T15:56:30;42.34;34.83;58.70;;
77134;Laerm;25175;50.140;18.990;2023-08-06T15:59:35;41.86;35.36;57.83;;
77134;Laerm;25175;50.140;18.990;2023-08-06T16:02:44;41.24;35.31;54.12;;
77134;Laerm;25175;50.140;18.990;2023-08-06T16:05:49;40.80;35.26;52.74;;
77134;Laerm;25175;50.140;18.990;2023-08-06T16:08:56;43.68;35.68;62.01;;
77134;Laerm;25175;50.140;18.990;2023-08-06T16:12:02;41.92;35.80;54.22;;
77134;Laerm;25175;50.140;18.990;2023-08-06T16:15:08;44.32;35.72;56.84;;
77134;Laerm;25175;50.140;18.990;2023-08-06T16:18:15;45.40;35.72;57.65;;
77134;Laerm;25175;50.140;18.990;2023-08-06T16:21:19;43.25;35.86;57.23;;
77134;Laerm;25175;50.140;18.990;2023-08-06T16:24:29;44.70;35.28;58.04;;
77134;Laerm;25175;50.140;18.990;2023-08-06T16:27:35;44.05;35.00;59.50;;
77134;Laerm;25175;50.140;18.990;2023-08-06T16:30:44;41.34;34.92;55.36;;
77134;Laerm;25175;50.140;18.990;2023-08-06T16:33:50;41.27;35.38;62.59;;
77134;Laerm;25175;50.140;18.990;2023-08-06T16:36:55;41.57;35.00;62.32;;
77134;Laerm;25175;50.140;18.990;2023-08-06T16:40:06;45.02;35.78;56.43;;
77134;Laerm;25175;50.140;18.990;2023-08-06T16:43:13;43.77;35.85;60.09;;
77134;Laerm;25175;50.140;18.990;2023-08-06T16:46:18;45.95;35.69;58.46;;
77134;Laerm;25175;50.140;18.990;2023-08-06T16:49:23;43.53;35.33;56.69;;
77134;Laerm;25175;50.140;18.990;2023-08-06T16:52:27;45.89;35.64;57.23;;
77134;Laerm;25175;50.140;18.990;2023-08-06T16:55:35;44.92;36.02;58.07;;
77134;Laerm;25175;50.140;18.990;2023-08-06T16:58:40;45.33;35.34;59.02;;
77134;Laerm;25175;50.140;18.990;2023-08-06T17:01:45;42.18;34.76;55.82;;
77134;Laerm;25175;50.140;18.990;2023-08-06T17:04:49;44.00;34.94;56.19;;
77134;Laerm;25175;50.140;18.990;2023-08-06T17:07:54;39.32;34.51;53.62;;